Batang, China
Current Conditions -  °F | °C
As of 11:00 PM on Thursday 23 Oct 2014 (Local Time) from ZUUU Reporting Station
Clear Clear  
Wind Chill: 64°   Ceiling: Unl
Heat Index: 64°   Visibility: 4mi
Dew Point: 57°   Wind: 4mph
Humidity: 77%   Direction: 190°S
Pressure: 30.06"   Gusts: NA
Location:  30°N, 99.1°E
Report Text: ZUUU 231500Z 19002MPS 140V230 6000 NSC 18/14 Q1018 NOSIG
Loading
Personal Weather Stations






























Interactive Weather Map
Tropical Storm Tracking
New forecast layout! Learn more

10-Day Weather Forecast

Advertisements
Track Severe Weather on mobile